Time;durP1;ratioP1;P1;durP2;ratioP2;P2;SDS_P1;SDS_P2;PMS_P1;PMS_P2;Temp;Humidity;BMP_temperature;BMP_pressure;BME280_temperature;BME280_humidity;BME280_pressure;Samples;Min_cycle;Max_cycle;Signal;HPM_P1;HPM_P2
2022/08/11 00:00:43;;;;;;;4.93;1.95;;;;;;;-148.88;54.34;75626.91;4994937;28;20037;-78
2022/08/11 00:03:11;;;;;;;5.15;2.10;;;;;;;-148.88;54.73;75628.94;4995244;28;20097;-78
2022/08/11 00:05:54;;;;;;;4.53;2.38;;;;;;;-148.88;55.30;75637.06;4994228;28;20038;-78
2022/08/11 00:08:24;;;;;;;3.72;2.05;;;;;;;-148.88;55.48;75635.03;4995600;28;20085;-77
2022/08/11 00:10:54;;;;;;;4.75;2.20;;;;;;;-148.88;55.26;75626.91;4994017;28;20165;-77
2022/08/11 00:13:21;;;;;;;4.47;2.47;;;;;;;-148.88;55.21;75628.94;4993376;28;20022;-77
2022/08/11 00:15:47;;;;;;;4.03;2.17;;;;;;;-148.88;55.13;75626.91;4992745;28;20045;-77
2022/08/11 00:18:12;;;;;;;5.93;2.65;;;;;;;-148.88;55.83;75628.94;4994570;28;20081;-77
2022/08/11 00:20:43;;;;;;;4.15;2.10;;;;;;;-148.88;55.89;75622.84;4995118;28;20485;-78
2022/08/11 00:23:13;;;;;;;3.75;2.47;;;;;;;-148.88;55.77;75620.81;4995467;28;20023;-78
2022/08/11 00:25:47;;;;;;;3.20;1.77;;;;;;;-148.88;55.86;75639.09;4994331;28;20100;-78
2022/08/11 00:28:42;;;;;;;5.40;2.10;;;;;;;-148.88;55.99;75630.97;4995965;28;20031;-79
2022/08/11 00:31:19;;;;;;;5.35;2.20;;;;;;;-148.88;55.89;75630.97;4978229;28;20065;-78
2022/08/11 00:33:47;;;;;;;4.03;2.20;;;;;;;-148.88;55.62;75635.03;4995717;28;20110;-78
2022/08/11 00:36:15;;;;;;;4.30;2.13;;;;;;;-148.88;55.87;75647.22;4995922;28;20026;-78
2022/08/11 00:38:44;;;;;;;5.25;2.42;;;;;;;-148.88;55.74;75651.28;4995437;28;20030;-78
2022/08/11 00:41:33;;;;;;;5.50;2.50;;;;;;;-148.88;56.34;75667.53;4996826;28;20018;-78
2022/08/11 00:44:27;;;;;;;7.15;3.03;;;;;;;-148.88;56.93;75671.59;4999754;28;20022;-78
2022/08/11 00:47:11;;;;;;;4.07;2.35;;;;;;;-148.88;56.90;75671.59;4998968;28;20026;-77
2022/08/11 00:50:04;;;;;;;4.30;2.13;;;;;;;-148.88;56.61;75689.88;4997522;28;20025;-77
2022/08/11 00:52:43;;;;;;;5.38;2.30;;;;;;;-148.88;58.21;75716.28;4997390;28;20026;-77
2022/08/11 00:55:11;;;;;;;4.78;2.50;;;;;;;-148.88;58.21;75724.41;4997417;28;20033;-77
2022/08/11 00:58:27;;;;;;;6.72;2.50;;;;;;;-148.88;58.90;75744.72;4996064;28;20026;-77
2022/08/11 01:01:05;;;;;;;5.38;2.35;;;;;;;-148.88;59.33;75760.97;4995850;28;20042;-78
2022/08/11 01:03:48;;;;;;;4.60;2.60;;;;;;;-148.88;58.97;75752.84;4998905;28;20400;-78
2022/08/11 01:06:51;;;;;;;2.90;2.17;;;;;;;-148.88;59.10;75736.59;4997629;28;20030;-78
2022/08/11 01:09:53;;;;;;;5.28;2.20;;;;;;;-148.88;58.01;75726.44;4998391;28;20037;-78
2022/08/11 01:12:22;;;;;;;4.18;2.10;;;;;;;-148.88;57.77;75740.66;4997572;28;20034;-78
2022/08/11 01:15:24;;;;;;;3.28;2.08;;;;;;;-148.88;58.53;75738.63;4998570;28;20088;-78
2022/08/11 01:18:26;;;;;;;2.88;2.00;;;;;;;-148.88;58.67;75740.66;4998386;28;20023;-78
2022/08/11 01:21:02;;;;;;;3.95;2.20;;;;;;;-148.88;59.29;75765.03;4997391;28;20026;-78
2022/08/11 01:23:40;;;;;;;4.40;2.28;;;;;;;-148.88;60.05;75789.41;4997404;28;20043;-78
2022/08/11 01:26:42;;;;;;;3.83;2.30;;;;;;;-148.88;60.97;75797.53;4996703;28;20061;-77
2022/08/11 01:29:25;;;;;;;4.38;2.72;;;;;;;-148.88;61.52;75801.59;4996617;28;20093;-77
2022/08/11 01:32:28;;;;;;;6.47;2.65;;;;;;;-148.88;61.37;75809.72;4996753;28;20053;-77
2022/08/11 01:35:22;;;;;;;6.63;2.65;;;;;;;-148.88;61.86;75809.72;4996609;28;20030;-77
2022/08/11 01:37:56;;;;;;;4.35;2.60;;;;;;;-148.88;61.72;75805.66;4996242;28;20493;-78
2022/08/11 01:40:46;;;;;;;6.00;2.60;;;;;;;-148.88;61.82;75813.78;5000397;28;20045;-78
2022/08/11 01:46:28;;;;;;;4.88;2.40;;;;;;;-148.88;62.01;75805.66;5000363;28;20037;-78
2022/08/11 01:49:16;;;;;;;3.45;2.08;;;;;;;-148.88;61.66;75797.53;4998547;28;20030;-78
2022/08/11 01:52:05;;;;;;;3.90;2.20;;;;;;;-148.88;61.45;75791.44;4998913;28;20019;-78
2022/08/11 01:54:52;;;;;;;5.13;2.53;;;;;;;-148.88;61.16;75789.41;4999900;28;20077;-78
2022/08/11 01:57:32;;;;;;;4.32;2.15;;;;;;;-148.88;60.85;75787.38;5000121;28;20041;-78
2022/08/11 02:00:07;;;;;;;3.22;2.47;;;;;;;-148.88;60.42;75777.22;5000353;28;20045;-78
2022/08/11 02:02:59;;;;;;;3.22;2.25;;;;;;;-148.88;60.26;75777.22;4998082;28;20057;-77
2022/08/11 02:05:40;;;;;;;4.03;2.10;;;;;;;-148.88;60.06;75769.09;4995850;28;20026;-77
2022/08/11 02:08:13;;;;;;;5.20;1.90;;;;;;;-148.88;59.62;75763.00;4996077;28;20072;-77
2022/08/11 02:13:46;;;;;;;3.72;2.30;;;;;;;-148.88;59.57;75765.03;4986274;28;20091;-77
2022/08/11 02:16:33;;;;;;;3.50;2.40;;;;;;;-148.88;59.82;75760.97;4996468;28;20054;-78
2022/08/11 02:25:10;;;;;;;5.10;2.40;;;;;;;-148.88;60.00;75756.91;4999444;28;20169;-78
2022/08/11 02:28:01;;;;;;;3.08;2.15;;;;;;;-148.88;60.01;75754.88;4999578;28;20030;-78
2022/08/11 02:30:34;;;;;;;4.70;2.30;;;;;;;-148.88;60.22;75752.84;4998369;28;20033;-78
2022/08/11 02:33:23;;;;;;;7.03;2.55;;;;;;;-148.88;60.12;75756.91;4999325;28;20488;-78
2022/08/11 02:36:03;;;;;;;4.60;2.70;;;;;;;-148.88;59.56;75763.00;4999648;28;20627;-78
2022/08/11 02:38:47;;;;;;;4.05;2.33;;;;;;;-148.88;59.75;75769.09;4999267;28;20053;-78
2022/08/11 02:44:28;;;;;;;5.63;3.30;;;;;;;-148.88;60.06;75777.22;4995830;28;20038;-77
2022/08/11 02:47:22;;;;;;;4.32;2.65;;;;;;;-148.88;60.58;75777.22;4995332;28;20022;-77
2022/08/11 02:49:58;;;;;;;4.43;2.47;;;;;;;-148.88;61.37;75791.44;4993985;28;20026;-78
2022/08/11 02:52:30;;;;;;;6.43;3.13;;;;;;;-148.88;61.48;75805.66;4995450;28;20406;-78
2022/08/11 02:55:24;;;;;;;3.38;2.63;;;;;;;-148.88;62.07;75807.69;4995603;28;20030;-78
2022/08/11 02:58:08;;;;;;;4.13;3.03;;;;;;;-148.88;63.06;75825.97;4997851;28;20042;-78
2022/08/11 03:00:46;;;;;;;5.30;3.28;;;;;;;-148.88;63.80;75838.16;4998523;28;20034;-78
2022/08/11 03:03:28;;;;;;;5.22;3.35;;;;;;;-148.88;64.04;75850.34;4998666;28;20015;-78
2022/08/11 03:06:07;;;;;;;5.60;3.47;;;;;;;-148.88;66.06;75876.75;4997474;28;20151;-78
2022/08/11 03:08:55;;;;;;;4.43;3.40;;;;;;;-148.88;66.43;75882.84;4998705;28;20038;-78
2022/08/11 03:18:01;;;;;;;5.93;3.30;;;;;;;-148.88;66.79;75903.16;4998445;28;20444;-77
2022/08/11 03:20:37;;;;;;;4.78;3.00;;;;;;;-148.88;66.83;75903.16;5000538;28;20026;-77
2022/08/11 03:23:28;;;;;;;5.88;3.58;;;;;;;-148.88;67.14;75905.19;4999609;28;20105;-78
2022/08/11 03:26:24;;;;;;;7.25;3.70;;;;;;;-148.88;67.28;75911.28;4998761;28;20053;-78
2022/08/11 03:29:20;;;;;;;7.95;3.50;;;;;;;-148.88;66.98;75899.09;4997258;28;20031;-78
2022/08/11 03:32:00;;;;;;;7.88;3.40;;;;;;;-148.88;66.81;75886.91;4997123;28;20045;-78
2022/08/11 03:34:30;;;;;;;7.30;3.42;;;;;;;-148.88;66.63;75895.03;4997445;28;20096;-79
2022/08/11 03:43:50;;;;;;;6.63;3.60;;;;;;;-148.88;66.83;75884.88;4995839;28;20088;-78
2022/08/11 03:46:31;;;;;;;5.25;3.70;;;;;;;-148.88;66.90;75882.84;4995968;28;20110;-78
2022/08/11 03:49:34;;;;;;;4.57;3.83;;;;;;;-148.88;66.18;75882.84;4995924;28;20026;-79
2022/08/11 03:52:26;;;;;;;10.80;4.70;;;;;;;-148.88;66.87;75886.91;4997621;28;20061;-78
2022/08/11 03:55:09;;;;;;;9.00;4.35;;;;;;;-148.88;67.08;75893.00;4996344;28;20030;-77
2022/08/11 03:57:38;;;;;;;11.40;4.50;;;;;;;-148.88;67.26;75899.09;4994300;28;20481;-77
2022/08/11 04:00:10;;;;;;;5.30;4.40;;;;;;;-148.88;68.55;75907.22;4993374;28;20034;-77
2022/08/11 04:03:06;;;;;;;7.22;4.35;;;;;;;-148.88;68.23;75899.09;4994446;28;20048;-77
2022/08/11 04:06:06;;;;;;;5.15;3.67;;;;;;;-148.88;68.21;75913.31;4994351;28;20033;-77
2022/08/11 04:08:51;;;;;;;6.68;3.95;;;;;;;-148.88;67.82;75909.25;4994776;28;20516;-77
2022/08/11 04:11:41;;;;;;;6.05;4.28;;;;;;;-148.88;67.85;75911.28;4994359;28;20027;-77
2022/08/11 04:17:44;;;;;;;6.05;4.05;;;;;;;-148.88;67.90;75911.28;4998359;28;20041;-77
2022/08/11 04:20:40;;;;;;;7.40;4.13;;;;;;;-148.88;68.42;75907.22;5000628;28;20028;-78
2022/08/11 04:23:17;;;;;;;5.88;4.03;;;;;;;-148.88;68.93;75911.28;5002326;28;20084;-78
2022/08/11 04:26:02;;;;;;;9.10;4.65;;;;;;;-148.88;68.41;75913.31;5002354;28;20440;-79
2022/08/11 04:28:47;;;;;;;5.65;4.57;;;;;;;-148.88;68.16;75913.31;5001478;28;20092;-78
2022/08/11 04:31:33;;;;;;;7.80;4.88;;;;;;;-148.88;68.65;75913.31;5003425;28;20034;-78
2022/08/11 04:33:59;;;;;;;9.18;5.57;;;;;;;-148.88;68.94;75919.41;5000655;28;20543;-78
2022/08/11 04:40:00;;;;;;;8.30;5.13;;;;;;;-148.88;70.13;75927.53;5001755;28;20037;-78
2022/08/11 04:43:19;;;;;;;6.68;4.75;;;;;;;-148.88;70.63;75925.50;5001271;28;20029;-77
2022/08/11 04:45:53;;;;;;;23.70;9.82;;;;;;;-148.88;69.95;75919.41;5000169;28;20022;-77
2022/08/11 05:04:03;;;;;;;5.97;4.13;;;;;;;-148.88;71.05;75901.13;5000324;28;20104;-76
2022/08/11 05:07:05;;;;;;;6.63;4.03;;;;;;;-148.88;71.00;75897.06;4999649;28;20377;-76
2022/08/11 05:09:42;;;;;;;5.55;3.70;;;;;;;-148.88;70.97;75890.97;5000308;28;20477;-76
2022/08/11 05:12:18;;;;;;;6.43;3.83;;;;;;;-148.88;70.68;75880.81;4999903;28;20385;-76
2022/08/11 05:27:09;;;;;;;5.65;4.05;;;;;;;-148.88;70.44;75882.84;5000086;28;20097;-76
2022/08/11 05:35:30;;;;;;;6.78;3.50;;;;;;;-148.88;68.74;75834.09;4996911;28;20053;-78
2022/08/11 05:57:26;;;;;;;7.75;4.28;;;;;;;-148.88;68.98;75765.03;4996597;28;20504;-85
2022/08/11 05:59:59;;;;;;;7.53;3.53;;;;;;;-148.88;67.79;75758.94;4994686;28;20034;-86
2022/08/11 06:02:25;;;;;;;6.43;3.50;;;;;;;-148.88;66.43;75752.84;4994573;28;20104;-86
2022/08/11 06:04:58;;;;;;;7.32;3.33;;;;;;;-148.88;67.04;75740.66;4994752;28;20140;-86
2022/08/11 06:07:31;;;;;;;;;;;;;;;-148.88;66.87;75736.59;4995109;28;20026;-86
2022/08/11 06:09:58;;;;;;;7.47;3.67;;;;;;;-148.88;65.95;75726.44;4994538;28;19933;-86
2022/08/11 06:12:30;;;;;;;6.30;3.50;;;;;;;-148.88;66.54;75712.22;4994316;28;20105;-86
2022/08/11 06:15:00;;;;;;;7.45;3.90;;;;;;;-148.88;66.84;75714.25;4994497;28;20061;-86
2022/08/11 06:17:29;;;;;;;6.15;3.80;;;;;;;-148.88;66.56;75708.16;4994269;28;20053;-86
2022/08/11 06:20:04;;;;;;;6.78;3.80;;;;;;;-148.88;66.20;75695.97;4994333;28;20428;-86
2022/08/11 06:22:31;;;;;;;9.63;3.75;;;;;;;-148.88;66.99;75695.97;4994201;28;20113;-86
2022/08/11 06:25:02;;;;;;;7.47;3.58;;;;;;;-148.88;66.55;75695.97;4994239;28;20019;-86
2022/08/11 06:27:34;;;;;;;6.50;3.47;;;;;;;-148.88;66.84;75687.84;4994260;28;20117;-86
2022/08/11 06:30:01;;;;;;;9.88;3.90;;;;;;;-148.88;65.99;75673.63;4995478;28;20076;-86
2022/08/11 06:32:31;;;;;;;9.13;3.63;;;;;;;-148.88;65.44;75671.59;4995155;28;20032;-86
2022/08/11 06:35:22;;;;;;;7.03;3.80;;;;;;;-148.88;64.73;75655.34;4994265;28;20076;-86
2022/08/11 06:38:09;;;;;;;5.93;2.90;;;;;;;-148.88;64.53;75653.31;4994013;28;20045;-86
2022/08/11 06:41:29;;;;;;;5.72;3.15;;;;;;;-148.88;63.77;75643.16;4993921;28;20030;-86
2022/08/11 06:43:48;;;;;;;5.90;3.15;;;;;;;-148.88;61.97;75630.97;4994993;28;20028;-84
2022/08/11 06:46:16;;;;;;;4.03;2.97;;;;;;;-148.88;61.31;75616.75;4995097;28;20027;-87
2022/08/11 06:48:44;;;;;;;6.43;3.20;;;;;;;-148.88;61.39;75602.53;4993830;28;20026;-87
2022/08/11 06:51:13;;;;;;;8.57;3.30;;;;;;;-148.88;60.31;75596.44;4993641;28;20053;-88
2022/08/11 06:53:44;;;;;;;6.78;3.17;;;;;;;-148.88;60.01;75586.31;4994323;28;20022;-87
2022/08/11 07:01:46;;;;;;;5.22;2.90;;;;;;;-148.88;58.63;75561.94;4994736;28;20038;-86
2022/08/11 07:04:19;;;;;;;8.98;3.63;;;;;;;-148.88;59.48;75547.72;4993700;28;20030;-87
2022/08/11 07:16:08;;;;;;;6.85;3.20;;;;;;;-148.88;58.19;75486.78;4994881;28;20037;-85
2022/08/11 07:30:48;;;;;;;6.50;2.10;;;;;;;-148.88;54.41;75403.50;4994471;28;20120;-85
2022/08/11 07:33:27;;;;;;;7.20;2.47;;;;;;;-148.88;55.67;75399.44;4994450;28;20026;-85
2022/08/11 07:36:00;;;;;;;3.80;2.33;;;;;;;-148.88;54.05;75375.06;4992793;28;20412;-86
2022/08/11 07:38:50;;;;;;;4.53;2.30;;;;;;;-148.88;54.12;75364.91;4993352;28;20045;-85
2022/08/11 07:41:34;;;;;;;;;;;;;;;;;;;;;
2022/08/11 07:48:10;;;;;;;4.07;2.15;;;;;;;-148.88;53.61;75330.38;5005810;28;20070;-89
2022/08/11 07:52:46;;;;;;;4.75;2.17;;;;;;;-148.88;52.54;75271.50;4995308;28;20088;-85
2022/08/11 07:55:15;;;;;;;5.45;2.28;;;;;;;-148.88;52.27;75251.19;4994879;28;20026;-85
2022/08/11 08:19:49;;;;;;;3.55;1.77;;;;;;;-148.88;46.91;75106.97;4994210;28;20104;-86
2022/08/11 08:22:23;;;;;;;4.32;1.80;;;;;;;-148.88;45.67;75078.56;4992311;28;20019;-86
2022/08/11 08:24:59;;;;;;;3.65;1.75;;;;;;;-148.88;42.77;75054.19;4993487;28;20045;-86
2022/08/11 08:27:30;;;;;;;5.80;2.03;;;;;;;-148.88;43.82;75046.06;4993772;28;20041;-85
2022/08/11 08:30:46;;;;;;;5.05;1.98;;;;;;;-148.88;44.38;75033.88;4992700;28;20065;-87
2022/08/11 08:32:56;;;;;;;5.53;2.03;;;;;;;-148.88;43.77;75009.50;4990368;28;20037;-86
2022/08/11 08:35:25;;;;;;;2.88;1.75;;;;;;;-148.88;43.75;74993.25;4993414;28;20078;-87
2022/08/11 08:37:54;;;;;;;4.47;1.80;;;;;;;-148.88;43.37;74964.81;4992239;28;20385;-86
2022/08/11 08:40:20;;;;;;;6.50;2.00;;;;;;;-148.88;41.08;74932.34;4993454;28;20105;-85
2022/08/11 08:42:58;;;;;;;4.28;1.80;;;;;;;-148.88;40.87;74924.22;4993673;28;20051;-86
2022/08/11 08:45:53;;;;;;;4.50;1.67;;;;;;;-148.88;42.54;74914.06;4992304;28;20060;-88
2022/08/11 08:48:23;;;;;;;3.60;1.73;;;;;;;-148.88;42.18;74893.75;4990198;28;20038;-85
2022/08/11 08:53:44;;;;;;;3.33;1.70;;;;;;;-148.88;41.31;74863.28;4993626;28;20393;-86
2022/08/11 08:56:13;;;;;;;3.28;1.60;;;;;;;-148.88;40.41;74840.94;4993524;28;20033;-86
2022/08/11 08:58:52;;;;;;;3.65;2.00;;;;;;;-148.88;39.84;74808.47;4992393;28;20022;-86
2022/08/11 09:01:21;;;;;;;6.05;1.67;;;;;;;-148.88;39.38;74755.66;4993471;28;20098;-87
2022/08/11 09:04:06;;;;;;;3.00;1.80;;;;;;;-148.88;40.29;74749.56;4995508;28;20026;-87
2022/08/11 09:06:32;;;;;;;2.97;1.90;;;;;;;-148.88;38.86;74755.66;4996834;28;20186;-87
2022/08/11 09:09:01;;;;;;;3.88;1.85;;;;;;;-148.88;39.31;74737.38;4997347;28;20129;-87
2022/08/11 09:14:16;;;;;;;3.83;1.80;;;;;;;-148.88;39.37;74723.16;4997145;28;20033;-88
2022/08/11 09:16:43;;;;;;;7.10;1.98;;;;;;;-148.88;37.96;74688.66;4997125;28;20092;-88
2022/08/11 09:19:09;;;;;;;3.92;2.00;;;;;;;-148.88;38.85;74668.34;4997053;28;20401;-90
2022/08/11 09:21:40;;;;;;;8.25;1.98;;;;;;;-148.88;37.48;74633.81;4995415;28;20026;-86
2022/08/11 09:27:01;;;;;;;5.43;1.80;;;;;;;-148.88;37.49;74587.13;4997256;28;20025;-89
2022/08/11 09:29:31;;;;;;;5.50;1.80;;;;;;;-148.88;35.07;74607.41;4995569;28;20526;-88
2022/08/11 09:31:58;;;;;;;4.22;2.13;;;;;;;-148.88;37.14;74591.19;4996368;28;20527;-88
2022/08/11 09:34:25;;;;;;;5.20;1.85;;;;;;;-148.88;35.56;74534.31;4996399;28;20417;-87
2022/08/11 09:42:22;;;;;;;5.18;1.70;;;;;;;-148.88;34.90;74477.47;4996666;28;20045;-88
2022/08/11 09:44:48;;;;;;;5.30;2.00;;;;;;;-148.88;32.20;74444.97;4995167;28;20411;-87
2022/08/11 09:47:22;;;;;;;3.75;1.75;;;;;;;-148.88;32.68;74436.84;4994985;28;20488;-88
2022/08/11 09:49:51;;;;;;;5.80;1.90;;;;;;;-148.88;32.46;74418.56;4996192;28;20030;-88
2022/08/11 09:52:17;;;;;;;5.95;1.85;;;;;;;-148.88;31.52;74373.91;4996204;28;20029;-88
2022/08/11 09:54:46;;;;;;;4.00;2.05;;;;;;;-148.88;30.37;74357.66;4996250;28;20034;-88
2022/08/11 09:59:56;;;;;;;3.47;1.70;;;;;;;-148.88;31.99;74319.09;4996475;28;20037;-88
2022/08/11 10:02:28;;;;;;;6.55;1.85;;;;;;;-148.88;31.83;74282.53;4994248;28;20125;-89
2022/08/11 10:07:49;;;;;;;3.92;1.83;;;;;;;-148.88;32.06;74213.50;4996009;28;20096;-88
2022/08/11 10:10:21;;;;;;;4.20;1.95;;;;;;;-148.88;30.43;74229.75;4994458;28;20038;-89
2022/08/11 10:12:52;;;;;;;4.85;1.83;;;;;;;-148.88;30.32;74211.47;4994512;28;20023;-88
2022/08/11 10:15:34;;;;;;;2.92;1.80;;;;;;;-148.88;30.51;74187.09;4995083;28;20048;-88
2022/08/11 10:20:59;;;;;;;3.22;1.70;;;;;;;-148.88;29.13;74209.44;4995995;28;20574;-88
2022/08/11 10:35:00;;;;;;;4.32;2.03;;;;;;;-148.88;29.30;74132.28;4995523;28;20121;-88
2022/08/11 10:37:33;;;;;;;2.90;1.60;;;;;;;-148.88;28.93;74099.78;4993277;28;20039;-89
2022/08/11 10:40:31;;;;;;;5.50;1.63;;;;;;;-148.88;28.56;74134.31;4994524;28;20031;-88
2022/08/11 10:43:02;;;;;;;5.47;2.03;;;;;;;-148.88;28.23;74168.84;4979818;28;20046;-89
2022/08/11 10:48:38;;;;;;;8.35;2.00;;;;;;;-148.88;30.25;74081.53;4973969;28;20138;-88
2022/08/11 11:00:23;;;;;;;4.75;2.00;;;;;;;-148.88;27.69;74040.91;4995318;28;20041;-88
2022/08/11 11:02:48;;;;;;;5.85;2.08;;;;;;;-148.88;27.72;74034.81;4995178;28;20038;-87
2022/08/11 11:05:24;;;;;;;2.85;1.98;;;;;;;-148.88;28.52;73965.78;4995058;28;20037;-88
2022/08/11 11:10:58;;;;;;;2.83;1.80;;;;;;;-148.88;27.46;73880.53;4995472;28;20041;-88
2022/08/11 11:19:10;;;;;;;3.58;1.70;;;;;;;-148.88;28.66;73898.78;4994893;28;20089;-88
2022/08/11 11:21:52;;;;;;;3.75;2.13;;;;;;;-148.88;28.23;73882.56;4993475;28;20026;-86
2022/08/11 11:24:46;;;;;;;4.75;1.60;;;;;;;-148.88;26.75;73848.03;4995405;28;20054;-87
2022/08/11 11:27:33;;;;;;;5.78;1.88;;;;;;;-148.88;26.66;73933.31;4993211;28;20032;-89
2022/08/11 11:30:31;;;;;;;3.78;2.00;;;;;;;-148.88;27.58;73994.22;4993039;28;20409;-88
2022/08/11 11:33:15;;;;;;;7.18;2.15;;;;;;;-148.88;28.61;73868.34;4993646;28;20037;-88
2022/08/11 11:36:18;;;;;;;3.33;1.98;;;;;;;-148.88;27.31;73900.81;5006396;28;20032;-89
2022/08/11 11:38:44;;;;;;;5.35;1.90;;;;;;;-148.88;27.38;73852.09;4944603;28;20041;-87
2022/08/11 11:41:30;;;;;;;4.95;1.88;;;;;;;-148.88;27.38;73864.28;5012424;28;20046;-88
2022/08/11 11:43:57;;;;;;;7.30;1.95;;;;;;;-148.88;27.07;73935.34;5012095;28;20030;-88
2022/08/11 11:46:29;;;;;;;6.72;2.00;;;;;;;-148.88;27.92;73933.31;5012597;28;20128;-87
2022/08/11 11:48:55;;;;;;;3.20;1.63;;;;;;;-148.88;27.56;73846.00;5012423;28;20022;-89
2022/08/11 11:51:28;;;;;;;2.83;2.08;;;;;;;-148.88;26.76;73852.09;5013614;28;20038;-87
2022/08/11 11:53:54;;;;;;;3.90;2.10;;;;;;;-148.88;26.22;73823.69;5012510;28;20026;-89
2022/08/11 11:56:26;;;;;;;4.90;1.92;;;;;;;-148.88;26.37;73904.88;5012406;28;20443;-87
2022/08/11 12:01:42;;;;;;;6.47;2.10;;;;;;;-148.88;26.95;73868.34;5013690;28;20088;-86
2022/08/11 12:04:09;;;;;;;2.97;1.88;;;;;;;-148.88;26.57;73801.34;5013618;28;20373;-86
2022/08/11 12:06:36;;;;;;;4.57;1.83;;;;;;;-148.88;25.91;73797.28;5013399;28;20472;-86
2022/08/11 12:09:02;;;;;;;5.30;1.80;;;;;;;-148.88;25.89;73791.19;5013283;28;20108;-87
2022/08/11 12:14:17;;;;;;;4.20;1.80;;;;;;;-148.88;25.44;73754.66;5013377;28;20345;-86
2022/08/11 12:16:44;;;;;;;4.65;1.90;;;;;;;-148.88;25.75;73748.56;5013538;28;20034;-83
2022/08/11 12:19:13;;;;;;;4.10;1.92;;;;;;;-148.88;25.81;73776.97;5011844;28;20029;-84
2022/08/11 12:27:33;;;;;;;3.00;1.60;;;;;;;-148.88;25.35;73707.97;5013499;28;20084;-86
2022/08/11 12:30:19;;;;;;;6.10;1.90;;;;;;;-148.88;25.61;73791.19;5011853;28;20034;-88
2022/08/11 12:32:44;;;;;;;6.47;1.83;;;;;;;-148.88;25.93;73726.22;5012435;28;20488;-86
2022/08/11 12:35:14;;;;;;;3.63;1.80;;;;;;;-148.88;25.70;73762.78;5012500;28;20057;-86
2022/08/11 12:38:02;;;;;;;2.78;1.60;;;;;;;-148.88;25.84;73752.63;5011847;28;20555;-85
2022/08/11 12:46:13;;;;;;;5.10;1.88;;;;;;;-148.88;25.43;73795.25;4997712;28;20077;-87
2022/08/11 12:52:00;;;;;;;3.67;1.70;;;;;;;-148.88;27.02;73854.13;4999658;28;20085;-86
2022/08/11 12:54:51;;;;;;;6.65;3.63;;;;;;;-148.88;26.65;73795.25;4996506;28;20026;-86
2022/08/11 13:05:42;;;;;;;2.60;1.70;;;;;;;-148.88;25.22;73687.66;5016840;28;20632;-86
2022/08/11 13:08:08;;;;;;;3.13;1.70;;;;;;;-148.88;25.54;73705.94;5015072;28;20026;-85
2022/08/11 13:13:22;;;;;;;4.22;1.60;;;;;;;-148.88;25.43;73722.16;5017068;28;20053;-86
2022/08/11 13:15:48;;;;;;;3.50;1.98;;;;;;;-148.88;24.93;73734.34;5016811;28;20026;-87
2022/08/11 13:18:21;;;;;;;3.83;1.98;;;;;;;-148.88;26.09;73701.88;5020639;28;20022;-86
2022/08/11 13:20:57;;;;;;;4.72;1.80;;;;;;;-148.88;25.92;73756.69;5016283;28;20021;-87
2022/08/11 13:23:24;;;;;;;4.97;1.88;;;;;;;-148.88;26.65;73726.22;5016172;28;20061;-87
2022/08/11 13:25:52;;;;;;;2.92;1.90;;;;;;;-148.88;25.52;73710.00;5016489;28;20045;-86
2022/08/11 13:28:21;;;;;;;6.22;1.85;;;;;;;-148.88;25.82;73785.09;5016390;28;20025;-86
2022/08/11 13:33:50;;;;;;;4.03;1.73;;;;;;;-148.88;26.42;73714.03;5016818;28;20036;-88
2022/08/11 13:36:18;;;;;;;5.95;1.95;;;;;;;-148.88;25.62;73762.78;5015234;28;20021;-88
2022/08/11 13:38:44;;;;;;;5.40;1.60;;;;;;;-148.88;25.74;73722.16;5014813;28;20033;-85
2022/08/11 13:43:55;;;;;;;3.88;1.60;;;;;;;-148.88;25.71;73636.91;5016174;28;20033;-86
2022/08/11 13:46:23;;;;;;;3.72;1.50;;;;;;;-148.88;26.50;73643.00;5015938;28;20026;-86
2022/08/11 13:48:50;;;;;;;4.80;1.63;;;;;;;-148.88;25.91;73657.19;5015045;28;20084;-86
2022/08/11 13:54:03;;;;;;;4.00;1.77;;;;;;;-148.88;25.66;73653.16;5016386;28;20080;-86
2022/08/11 13:56:30;;;;;;;5.68;1.90;;;;;;;-148.88;25.33;73624.72;5014731;28;20496;-86
2022/08/11 13:58:57;;;;;;;3.20;1.60;;;;;;;-148.88;24.85;73643.00;5016311;28;20072;-86
2022/08/11 14:01:28;;;;;;;3.03;1.73;;;;;;;-148.88;25.55;73608.47;5015682;28;20045;-86
2022/08/11 14:03:54;;;;;;;3.83;1.90;;;;;;;-148.88;26.03;73606.44;5014283;28;20030;-85
2022/08/11 14:06:33;;;;;;;4.07;1.88;;;;;;;-148.88;25.27;73584.13;5015589;28;20388;-86
2022/08/11 14:08:59;;;;;;;2.75;1.70;;;;;;;-148.88;24.59;73604.41;5014282;28;20547;-86
2022/08/11 14:14:17;;;;;;;5.20;1.88;;;;;;;-148.88;25.90;73630.81;5015625;28;20029;-85
2022/08/11 14:16:43;;;;;;;4.10;1.95;;;;;;;-148.88;25.52;73590.22;5015998;28;20018;-85
2022/08/11 14:19:12;;;;;;;3.40;1.90;;;;;;;-148.88;25.67;73565.84;5015438;28;20018;-87
2022/08/11 14:24:26;;;;;;;4.97;1.77;;;;;;;-148.88;25.05;73606.44;5015709;28;20036;-86
2022/08/11 14:26:53;;;;;;;3.00;1.77;;;;;;;-148.88;25.04;73612.53;5015653;28;20072;-86
2022/08/11 14:29:27;;;;;;;6.20;1.70;;;;;;;-148.88;24.96;73616.59;5015072;28;20028;-87
2022/08/11 14:32:00;;;;;;;3.55;1.88;;;;;;;-148.88;24.96;73628.78;5013704;28;20033;-86
2022/08/11 14:34:33;;;;;;;4.68;1.75;;;;;;;-148.88;24.80;73598.31;5015141;28;20026;-86
2022/08/11 14:37:18;;;;;;;4.32;1.70;;;;;;;-148.88;25.58;73594.28;5014404;28;20026;-87
2022/08/11 14:39:59;;;;;;;3.10;1.63;;;;;;;-148.88;25.58;73582.09;5014092;28;20412;-88
2022/08/11 14:48:11;;;;;;;4.53;1.98;;;;;;;-148.88;26.17;73580.06;5015034;28;20446;-87
2022/08/11 14:50:37;;;;;;;4.97;1.98;;;;;;;-148.88;25.19;73612.53;5014696;28;20023;-87
2022/08/11 14:53:11;;;;;;;4.18;1.60;;;;;;;-148.88;25.35;73622.69;5014846;28;20396;-87
2022/08/11 14:58:30;;;;;;;2.72;1.67;;;;;;;-148.88;24.99;73600.34;5014572;28;20089;-87
2022/08/11 15:00:57;;;;;;;3.15;1.65;;;;;;;-148.88;24.26;73571.94;5013106;28;20030;-86
2022/08/11 15:03:34;;;;;;;3.30;1.70;;;;;;;-148.88;23.46;73567.88;5014740;28;20196;-87
2022/08/11 15:06:02;;;;;;;4.03;1.48;;;;;;;-148.88;23.73;73563.81;5014306;28;20029;-86
2022/08/11 15:14:08;;;;;;;3.58;1.60;;;;;;;-148.88;23.89;73576.00;5014944;28;20028;-86
2022/08/11 15:19:20;;;;;;;2.80;1.60;;;;;;;-148.88;24.77;73584.13;5015100;28;20033;-87
2022/08/11 15:24:44;;;;;;;3.42;1.67;;;;;;;-148.88;23.54;73549.59;4992060;28;20532;-87
2022/08/11 15:49:02;;;;;;;5.30;1.90;;;;;;;-148.88;24.43;73594.28;5013889;28;20033;-87
2022/08/11 15:51:44;;;;;;;6.32;1.90;;;;;;;-148.88;24.31;73651.13;5011395;22;20046;-77
2022/08/11 15:54:15;;;;;;;4.32;1.60;;;;;;;-148.88;24.51;73669.38;4994272;28;20675;-77
2022/08/11 15:56:46;;;;;;;3.13;1.60;;;;;;;-148.88;24.83;73697.81;4996409;28;20097;-77
2022/08/11 16:04:09;;;;;;;5.35;1.85;;;;;;;-148.88;24.69;73714.03;4977219;28;20042;-79
2022/08/11 16:05:04;;;;;;;4.60;2.03;;;;;;;-148.88;24.80;73718.09;4976157;28;20037;-77
2022/08/11 16:07:34;;;;;;;7.20;1.83;;;;;;;-148.88;25.13;73693.75;4971483;28;20050;-76
2022/08/11 16:10:18;;;;;;;2.47;1.70;;;;;;;-148.88;25.48;73687.66;4980178;28;20026;-76
2022/08/11 16:18:45;;;;;;;6.80;1.90;;;;;;;-148.88;24.92;73710.00;4980337;28;20412;-78
2022/08/11 16:21:22;;;;;;;4.25;1.50;;;;;;;-148.88;24.82;73699.84;5004950;28;20014;-76
2022/08/11 16:23:49;;;;;;;3.95;2.22;;;;;;;-148.88;24.88;73720.13;4974423;28;20027;-76
2022/08/11 16:26:22;;;;;;;3.75;1.77;;;;;;;-148.88;24.87;73705.94;4974413;28;20110;-76
2022/08/11 16:28:50;;;;;;;3.17;1.60;;;;;;;-148.88;24.83;73752.63;4974042;28;20023;-76
2022/08/11 16:31:17;;;;;;;4.45;1.90;;;;;;;-148.88;25.35;73724.19;4974041;28;20034;-76
2022/08/11 16:33:44;;;;;;;4.07;1.70;;;;;;;-148.88;25.34;73752.63;4976047;28;20490;-77
2022/08/11 16:38:58;;;;;;;4.75;1.60;;;;;;;-148.88;25.08;73744.50;4974734;28;20500;-76
2022/08/11 16:46:59;;;;;;;4.60;1.60;;;;;;;-148.88;25.29;73716.06;4974148;28;20038;-76
2022/08/11 16:49:29;;;;;;;4.50;1.90;;;;;;;-148.88;25.44;73726.22;4974337;28;20035;-76
2022/08/11 16:51:54;;;;;;;6.13;1.80;;;;;;;-148.88;25.39;73766.84;4973832;28;20045;-76
2022/08/11 16:54:21;;;;;;;4.63;1.60;;;;;;;-148.88;25.26;73762.78;4974617;28;20023;-77
2022/08/11 16:56:52;;;;;;;4.40;1.80;;;;;;;-148.88;25.09;73766.84;4973361;28;20027;-77
2022/08/11 16:59:25;;;;;;;3.10;1.73;;;;;;;-148.88;25.48;73783.06;4973935;28;20026;-76
2022/08/11 17:02:06;;;;;;;3.42;1.75;;;;;;;-148.88;25.34;73785.09;4972635;28;20045;-76